createdAt,value
2023-03-24T00:01:27.599Z,75.35
2023-03-24T00:06:25.875Z,74.60
2023-03-24T00:11:29.391Z,75.06
2023-03-24T00:16:28.813Z,75.78
2023-03-24T00:21:28.336Z,76.57
2023-03-24T00:26:29.497Z,77.18
2023-03-24T00:31:26.759Z,76.76
2023-03-24T00:36:23.978Z,76.39
2023-03-24T00:41:21.056Z,76.50
2023-03-24T00:46:35.850Z,76.22
2023-03-24T00:51:35.863Z,75.14
2023-03-24T00:56:40.693Z,74.31
2023-03-24T01:01:40.472Z,75.32
2023-03-24T01:06:42.126Z,73.67
2023-03-24T01:11:40.742Z,72.61
2023-03-24T01:16:41.265Z,73.29
2023-03-24T01:21:41.642Z,73.41
2023-03-24T01:26:41.736Z,75.60
2023-03-24T01:31:41.861Z,75.80
2023-03-24T01:36:43.131Z,75.51
2023-03-24T01:41:42.485Z,73.82
2023-03-24T01:46:40.488Z,74.40
2023-03-24T01:51:42.479Z,75.04
2023-03-24T01:56:44.608Z,75.22
2023-03-24T02:01:44.741Z,73.99
2023-03-24T02:07:04.560Z,73.47
2023-03-24T02:12:02.571Z,73.22
2023-03-24T02:17:18.778Z,74.09
2023-03-24T02:22:38.486Z,74.00
2023-03-24T02:27:49.422Z,74.37
2023-03-24T02:33:04.183Z,74.59
2023-03-24T02:38:15.924Z,74.61
2023-03-24T02:43:33.873Z,73.40
2023-03-24T02:48:36.583Z,74.68
2023-03-24T02:53:38.958Z,74.35
2023-03-24T02:58:54.006Z,75.55
2023-03-24T03:03:53.966Z,74.99
2023-03-24T03:08:56.872Z,75.15
2023-03-24T03:13:59.741Z,75.32
2023-03-24T03:18:59.469Z,75.98
2023-03-24T03:23:58.961Z,75.08
2023-03-24T03:29:01.228Z,75.88
2023-03-24T03:34:06.815Z,75.76
2023-03-24T03:39:09.214Z,75.29
2023-03-24T03:44:09.327Z,75.14
2023-03-24T03:49:09.770Z,73.97
2023-03-24T03:54:13.019Z,74.18
2023-03-24T03:59:26.570Z,74.13
2023-03-24T04:04:53.210Z,74.77
2023-03-24T04:10:15.517Z,75.85
2023-03-24T04:15:21.439Z,75.06
2023-03-24T04:20:47.038Z,74.48
2023-03-24T04:25:49.380Z,72.86
2023-03-24T04:30:51.930Z,73.52
2023-03-24T04:35:55.311Z,73.97
2023-03-24T04:41:00.854Z,74.14
2023-03-24T04:45:58.592Z,74.94
2023-03-24T04:51:07.414Z,74.34
2023-03-24T04:56:29.086Z,74.03
2023-03-24T05:01:49.422Z,73.87
2023-03-24T05:07:09.300Z,73.73
2023-03-24T05:12:09.484Z,74.02
2023-03-24T05:17:26.140Z,72.83
2023-03-24T05:22:23.250Z,73.92
2023-03-24T05:27:20.790Z,73.37
2023-03-24T05:32:20.467Z,73.35
2023-03-24T05:37:18.990Z,73.94
2023-03-24T05:42:20.218Z,73.77
2023-03-24T05:47:19.848Z,73.36
2023-03-24T05:52:20.431Z,73.31
2023-03-24T05:57:22.688Z,71.98
2023-03-24T06:02:40.664Z,73.48
2023-03-24T06:07:58.875Z,71.27
2023-03-24T06:13:13.876Z,69.92
2023-03-24T06:18:17.102Z,70.64
2023-03-24T06:23:14.964Z,69.18
2023-03-24T06:28:33.965Z,70.73
2023-03-24T06:33:42.246Z,71.76
2023-03-24T06:38:42.845Z,70.76
2023-03-24T06:43:49.963Z,72.07
2023-03-24T06:48:57.579Z,73.49
2023-03-24T06:54:11.229Z,72.97
2023-03-24T06:59:42.266Z,71.26
2023-03-24T07:04:43.538Z,71.35
2023-03-24T07:09:58.126Z,73.12
2023-03-24T07:15:00.785Z,72.41
2023-03-24T07:20:04.730Z,72.57
2023-03-24T07:25:33.257Z,71.53
2023-03-24T07:31:31.563Z,71.34
2023-03-24T07:37:23.411Z,72.04
2023-03-24T07:42:19.278Z,71.09
2023-03-24T07:47:46.311Z,70.29
2023-03-24T07:52:54.275Z,70.92
2023-03-24T08:04:21.274Z,67.96
2023-03-24T08:09:51.040Z,66.19
2023-03-24T08:14:54.077Z,66.83
2023-03-24T08:20:00.740Z,66.48
2023-03-24T08:25:05.900Z,66.30
2023-03-24T08:30:20.503Z,64.21
2023-03-24T08:35:24.214Z,63.26
2023-03-24T08:40:33.627Z,61.12
2023-03-24T08:45:41.843Z,59.95
2023-03-24T08:50:46.891Z,60.27
2023-03-24T08:55:58.792Z,61.66
2023-03-24T09:01:01.840Z,62.62
2023-03-24T09:06:03.379Z,62.22
2023-03-24T09:11:19.531Z,61.18
2023-03-24T09:16:36.444Z,59.76
2023-03-24T09:21:40.748Z,57.73
2023-03-24T09:26:53.923Z,56.20
2023-03-24T09:32:13.691Z,56.13
2023-03-24T09:37:19.392Z,54.38
2023-03-24T09:42:23.597Z,54.65
2023-03-24T09:47:32.949Z,53.96
2023-03-24T09:52:43.166Z,54.00
2023-03-24T09:58:01.001Z,54.29
2023-03-24T10:03:16.723Z,52.83
2023-03-24T10:08:19.918Z,52.40
2023-03-24T10:13:52.267Z,52.21
2023-03-24T10:19:01.738Z,51.54
2023-03-24T10:24:15.380Z,50.67
2023-03-24T10:29:22.083Z,50.22
2023-03-24T10:34:52.844Z,50.33
2023-03-24T10:40:03.207Z,48.37
2023-03-24T10:45:02.971Z,49.16
2023-03-24T10:50:15.413Z,50.08
2023-03-24T10:55:17.093Z,48.69
2023-03-24T11:00:33.816Z,48.31
2023-03-24T11:05:36.363Z,47.99
2023-03-24T11:10:44.583Z,48.02
2023-03-24T11:16:03.135Z,47.13
2023-03-24T11:21:08.230Z,45.82
2023-03-24T11:26:16.768Z,45.16
2023-03-24T11:31:30.133Z,43.29
2023-03-24T11:36:47.550Z,44.46
2023-03-24T11:41:54.675Z,43.95
2023-03-24T11:47:15.774Z,42.58
2023-03-24T11:52:21.849Z,42.58
2023-03-24T11:57:30.346Z,41.01
2023-03-24T12:02:42.411Z,41.75
2023-03-24T12:07:58.520Z,41.24
2023-03-24T12:13:00.806Z,41.05
2023-03-24T12:18:18.330Z,40.49
2023-03-24T12:23:25.480Z,40.85
2023-03-24T12:28:40.801Z,40.37
2023-03-24T12:34:01.842Z,39.87
2023-03-24T12:39:41.657Z,38.75
2023-03-24T12:45:09.344Z,37.23
2023-03-24T12:50:34.724Z,37.14
2023-03-24T12:56:06.917Z,38.91
2023-03-24T13:01:38.471Z,38.09
2023-03-24T13:07:05.379Z,37.70
2023-03-24T13:12:28.623Z,37.36
2023-03-24T13:17:59.281Z,38.03
2023-03-24T13:23:13.606Z,36.57
2023-03-24T13:33:55.999Z,36.97
2023-03-24T13:39:24.098Z,35.57
2023-03-24T13:44:58.897Z,36.72
2023-03-24T13:50:45.306Z,37.69
2023-03-24T13:56:31.641Z,37.87
2023-03-24T14:01:59.484Z,36.98
2023-03-24T14:07:48.568Z,35.62
2023-03-24T14:12:52.716Z,35.66
2023-03-24T14:17:54.800Z,36.27
2023-03-24T14:22:59.112Z,37.16
2023-03-24T14:28:25.909Z,36.93
2023-03-24T14:33:38.515Z,37.80
2023-03-24T14:38:51.034Z,38.17
2023-03-24T14:43:58.642Z,37.44
2023-03-24T14:49:06.940Z,37.78
2023-03-24T14:54:06.494Z,37.94
2023-03-24T14:59:18.306Z,36.45
2023-03-24T15:04:39.013Z,36.26
2023-03-24T15:09:38.658Z,36.43
2023-03-24T15:14:39.428Z,36.72
2023-03-24T15:19:46.870Z,37.37
2023-03-24T15:24:54.816Z,37.40
2023-03-24T15:30:02.128Z,38.54
2023-03-24T15:35:00.806Z,38.45
2023-03-24T15:40:24.171Z,39.11
2023-03-24T15:45:27.802Z,39.54
2023-03-24T15:50:33.829Z,40.45
2023-03-24T15:55:37.879Z,40.95
2023-03-24T16:00:47.098Z,41.16
2023-03-24T16:06:06.100Z,41.58
2023-03-24T16:11:10.402Z,41.34
2023-03-24T16:16:37.415Z,41.02
2023-03-24T16:22:24.470Z,41.52
2023-03-24T16:27:46.070Z,42.04
2023-03-24T16:33:05.781Z,42.07
2023-03-24T16:38:08.049Z,42.23
2023-03-24T16:43:07.236Z,41.57
2023-03-24T16:48:06.857Z,41.64
2023-03-24T16:53:09.388Z,41.68
2023-03-24T16:58:09.928Z,41.50
2023-03-24T17:03:15.462Z,41.25
2023-03-24T17:08:28.214Z,40.98
2023-03-24T17:13:26.118Z,40.95
2023-03-24T17:24:00.708Z,41.31
2023-03-24T17:29:04.088Z,41.54
2023-03-24T17:34:21.561Z,41.41
2023-03-24T17:39:23.942Z,41.71
2023-03-24T17:44:28.456Z,41.78
2023-03-24T17:49:38.639Z,42.41
2023-03-24T17:54:49.295Z,42.67
2023-03-24T17:59:46.421Z,42.37
2023-03-24T18:04:46.300Z,42.21
2023-03-24T18:09:45.632Z,42.29
2023-03-24T18:14:53.018Z,42.44
2023-03-24T18:19:52.456Z,42.38
2023-03-24T18:24:51.588Z,42.46
2023-03-24T18:29:50.706Z,42.56
2023-03-24T18:34:52.539Z,42.33
2023-03-24T18:39:50.296Z,42.37
2023-03-24T18:44:50.150Z,42.47
2023-03-24T18:49:51.238Z,42.53
2023-03-24T18:54:49.087Z,42.37
2023-03-24T18:59:47.014Z,42.58
2023-03-24T19:04:45.932Z,42.34
2023-03-24T19:09:44.893Z,42.17
2023-03-24T19:14:43.026Z,42.19
2023-03-24T19:19:43.099Z,42.27
2023-03-24T19:24:41.161Z,42.35
2023-03-24T19:34:57.581Z,42.13
2023-03-24T19:39:59.078Z,42.33
2023-03-24T19:44:58.774Z,43.21
2023-03-24T19:49:56.662Z,43.37
2023-03-24T19:54:55.143Z,42.85
2023-03-24T19:59:52.016Z,43.32
2023-03-24T20:04:49.006Z,44.73
2023-03-24T20:09:46.686Z,43.81
2023-03-24T20:14:44.548Z,45.04
2023-03-24T20:19:41.432Z,45.78
2023-03-24T20:24:38.466Z,46.51
2023-03-24T20:29:36.263Z,46.32
2023-03-24T20:34:33.400Z,47.14
2023-03-24T20:39:32.621Z,46.79
2023-03-24T20:44:32.598Z,47.52
2023-03-24T20:49:30.360Z,48.08
2023-03-24T20:54:27.336Z,48.79
2023-03-24T20:59:24.462Z,48.35
2023-03-24T21:04:21.427Z,48.42
2023-03-24T21:09:21.881Z,49.13
2023-03-24T21:14:19.788Z,48.47
2023-03-24T21:19:20.705Z,48.32
2023-03-24T21:24:18.598Z,48.75
2023-03-24T21:29:15.402Z,48.84
2023-03-24T21:34:12.425Z,50.33
2023-03-24T21:39:11.435Z,50.86
2023-03-24T21:44:09.372Z,50.37
2023-03-24T21:49:06.380Z,50.93
2023-03-24T21:54:05.717Z,50.90
2023-03-24T21:59:04.822Z,51.06
2023-03-24T22:04:02.887Z,51.04
2023-03-24T22:09:06.025Z,51.22
2023-03-24T22:14:06.395Z,51.01
2023-03-24T22:19:04.124Z,50.68
2023-03-24T22:24:01.020Z,50.63
2023-03-24T22:28:59.305Z,49.72
2023-03-24T22:33:56.769Z,50.63
2023-03-24T22:38:57.897Z,50.76
2023-03-24T22:43:56.848Z,51.06
2023-03-24T22:48:53.775Z,51.53
2023-03-24T22:53:50.872Z,51.05
2023-03-24T22:58:51.569Z,51.99
2023-03-24T23:03:50.914Z,52.28
2023-03-24T23:08:48.926Z,52.36
2023-03-24T23:13:49.776Z,52.19
2023-03-24T23:18:47.445Z,52.26
2023-03-24T23:23:51.885Z,52.76
2023-03-24T23:28:51.623Z,52.65
2023-03-24T23:33:52.769Z,52.91
2023-03-24T23:38:54.030Z,52.94
2023-03-24T23:43:51.305Z,52.78
2023-03-24T23:48:48.156Z,53.13
2023-03-24T23:53:48.727Z,52.04
2023-03-24T23:58:45.649Z,53.24
